createdAt,value
2022-08-30T05:20:02.510Z,3.53
2022-08-30T05:22:29.361Z,2.25
2022-08-30T05:24:56.350Z,3.80
2022-08-30T05:27:23.374Z,3.78
2022-08-30T05:29:50.281Z,3.88
2022-08-30T05:32:18.081Z,3.00
2022-08-30T05:34:45.085Z,3.53
2022-08-30T05:37:11.918Z,2.50
2022-08-30T05:39:51.292Z,3.20
2022-08-30T05:42:19.185Z,2.85
2022-08-30T05:44:46.253Z,2.97
2022-08-30T05:47:13.105Z,3.17
2022-08-30T05:49:39.944Z,3.38
2022-08-30T05:52:06.971Z,2.90
2022-08-30T05:54:33.846Z,3.00
2022-08-30T05:57:00.703Z,3.03
2022-08-30T05:59:27.726Z,2.50
2022-08-30T06:01:58.102Z,3.65
2022-08-30T06:04:25.412Z,3.13
2022-08-30T06:06:52.398Z,2.33
2022-08-30T06:09:19.482Z,2.78
2022-08-30T06:11:47.322Z,3.15
2022-08-30T06:14:15.453Z,2.72
2022-08-30T06:16:45.821Z,3.90
2022-08-30T06:19:14.916Z,6.20
2022-08-30T06:21:42.699Z,6.57
2022-08-30T06:24:11.101Z,4.40
2022-08-30T06:26:41.482Z,3.92
2022-08-30T06:31:36.194Z,3.88
2022-08-30T06:34:03.759Z,3.13
2022-08-30T06:36:31.718Z,3.00
2022-08-30T06:38:59.203Z,3.10
2022-08-30T06:41:29.552Z,2.53
2022-08-30T06:43:57.784Z,3.20
2022-08-30T06:46:27.701Z,3.13
2022-08-30T06:48:56.947Z,3.40
2022-08-30T06:51:30.147Z,3.25
2022-08-30T06:53:58.174Z,3.10
2022-08-30T06:56:27.403Z,2.53
2022-08-30T06:58:54.707Z,3.00
2022-08-30T07:01:27.204Z,2.92
2022-08-30T07:03:55.692Z,2.60
2022-08-30T07:06:23.607Z,2.60
2022-08-30T07:08:55.901Z,2.45
2022-08-30T07:11:41.568Z,2.60
2022-08-30T07:14:09.097Z,2.55
2022-08-30T07:16:36.049Z,2.38
2022-08-30T07:19:06.411Z,2.28
2022-08-30T07:21:34.769Z,2.28
2022-08-30T07:24:02.510Z,2.28
2022-08-30T07:26:37.037Z,2.40
2022-08-30T07:29:04.748Z,2.40
2022-08-30T07:31:33.108Z,2.97
2022-08-30T07:34:00.002Z,2.05
2022-08-30T07:36:26.905Z,2.63
2022-08-30T07:38:54.689Z,2.30
2022-08-30T07:41:31.005Z,2.92
2022-08-30T07:43:58.585Z,1.40
2022-08-30T07:46:26.541Z,2.13
2022-08-30T07:48:56.691Z,2.25
2022-08-30T07:51:26.825Z,1.88
2022-08-30T07:53:55.118Z,2.13
2022-08-30T07:56:23.121Z,1.48
2022-08-30T07:58:50.579Z,1.70
2022-08-30T08:01:18.767Z,1.17
2022-08-30T08:03:46.908Z,1.92
2022-08-30T08:06:15.295Z,1.73
2022-08-30T08:08:42.629Z,1.30
2022-08-30T08:11:16.510Z,1.42
2022-08-30T08:13:53.886Z,1.90
2022-08-30T08:16:29.096Z,2.30
2022-08-30T08:18:57.039Z,2.08
2022-08-30T08:21:25.710Z,1.50
2022-08-30T08:23:52.858Z,1.65
2022-08-30T08:26:20.780Z,1.55
2022-08-30T08:28:48.096Z,1.48
2022-08-30T08:31:21.623Z,1.90
2022-08-30T08:33:52.436Z,1.65
2022-08-30T08:36:19.377Z,1.58
2022-08-30T08:38:46.320Z,1.30
2022-08-30T08:41:40.330Z,1.67
2022-08-30T08:44:34.757Z,1.58
2022-08-30T08:47:16.095Z,1.90
2022-08-30T08:49:46.237Z,1.52
2022-08-30T08:52:46.108Z,2.47
2022-08-30T08:55:16.479Z,1.83
2022-08-30T08:57:44.256Z,2.00
2022-08-30T09:00:14.491Z,1.90
2022-08-30T09:03:10.357Z,1.85
2022-08-30T09:05:39.988Z,1.88
2022-08-30T09:08:11.688Z,1.92
2022-08-30T09:10:50.355Z,1.63
2022-08-30T09:13:19.567Z,1.92
2022-08-30T09:15:54.370Z,1.90
2022-08-30T09:18:42.579Z,1.75
2022-08-30T09:21:14.169Z,1.83
2022-08-30T09:23:57.223Z,1.50
2022-08-30T09:26:33.716Z,1.88
2022-08-30T09:29:01.129Z,1.73
2022-08-30T09:31:47.486Z,1.20
2022-08-30T09:34:22.065Z,1.20
2022-08-30T09:36:52.163Z,1.23
2022-08-30T09:39:27.506Z,1.13
2022-08-30T09:41:55.157Z,1.67
2022-08-30T09:44:28.295Z,2.17
2022-08-30T09:47:00.448Z,0.93
2022-08-30T09:49:39.263Z,1.17
2022-08-30T09:52:49.932Z,0.80
2022-08-30T09:55:41.874Z,0.80
2022-08-30T09:58:14.132Z,0.70
2022-08-30T10:00:49.202Z,0.82
2022-08-30T10:03:36.122Z,0.95
2022-08-30T10:06:26.321Z,0.77
2022-08-30T10:09:09.345Z,0.68
2022-08-30T10:12:03.995Z,0.90
2022-08-30T10:14:39.739Z,0.63
2022-08-30T10:17:43.529Z,0.80
2022-08-30T10:20:35.299Z,0.98
2022-08-30T10:23:21.370Z,0.82
2022-08-30T10:25:55.117Z,0.70
2022-08-30T10:28:40.494Z,0.60
2022-08-30T10:31:12.775Z,0.88
2022-08-30T10:33:43.949Z,0.73
2022-08-30T10:36:13.966Z,0.80
2022-08-30T10:38:49.674Z,1.10
2022-08-30T10:41:26.180Z,0.77
2022-08-30T10:46:56.640Z,0.80
2022-08-30T10:49:27.419Z,0.73
2022-08-30T10:52:12.256Z,0.30
2022-08-30T10:54:52.821Z,0.80
2022-08-30T10:57:20.082Z,0.93
2022-08-30T11:00:43.353Z,0.68
2022-08-30T11:03:40.258Z,0.98
2022-08-30T11:06:31.214Z,3.80
2022-08-30T11:09:16.721Z,0.90
2022-08-30T11:12:02.355Z,0.63
2022-08-30T11:14:30.352Z,0.60
2022-08-30T11:17:00.397Z,0.70
2022-08-30T11:19:37.176Z,0.60
2022-08-30T11:22:22.162Z,0.77
2022-08-30T11:25:00.144Z,0.77
2022-08-30T11:27:41.010Z,0.63
2022-08-30T11:30:26.921Z,0.13
2022-08-30T11:33:02.994Z,0.73
2022-08-30T11:35:40.338Z,0.68
2022-08-30T11:38:30.932Z,1.08
2022-08-30T11:41:00.698Z,0.43
2022-08-30T11:43:38.999Z,1.00
2022-08-30T11:46:27.129Z,0.70
2022-08-30T11:48:57.002Z,0.70
2022-08-30T11:51:29.660Z,0.70
2022-08-30T11:54:07.352Z,1.20
2022-08-30T11:56:49.666Z,0.60
2022-08-30T11:59:25.300Z,0.60
2022-08-30T12:01:52.467Z,1.50
2022-08-30T12:04:22.974Z,1.23
2022-08-30T12:06:56.897Z,1.00
2022-08-30T12:09:23.679Z,1.20
2022-08-30T12:12:31.772Z,1.33
2022-08-30T12:15:00.370Z,0.70
2022-08-30T12:17:51.099Z,0.32
2022-08-30T12:20:44.046Z,1.40
2022-08-30T12:23:23.711Z,0.70
2022-08-30T12:26:08.554Z,0.80
2022-08-30T12:28:38.097Z,1.85
2022-08-30T12:31:16.799Z,4.22
2022-08-30T12:33:47.190Z,1.55
2022-08-30T12:36:31.618Z,3.22
2022-08-30T12:39:29.851Z,1.60
2022-08-30T12:42:11.446Z,0.98
2022-08-30T12:44:45.214Z,0.55
2022-08-30T12:47:14.479Z,0.68
2022-08-30T12:49:42.688Z,1.33
2022-08-30T12:52:31.648Z,1.08
2022-08-30T12:55:19.172Z,0.52
2022-08-30T12:58:01.363Z,0.95
2022-08-30T13:00:34.687Z,0.75
2022-08-30T13:03:25.763Z,0.60
2022-08-30T13:05:53.335Z,0.80
2022-08-30T13:08:25.866Z,0.68
2022-08-30T13:10:52.850Z,0.90
2022-08-30T13:13:38.169Z,0.57
2022-08-30T13:16:36.205Z,1.05
2022-08-30T13:19:33.497Z,0.80
2022-08-30T13:22:02.463Z,0.68
2022-08-30T13:24:29.583Z,0.95
2022-08-30T13:27:01.792Z,0.60
2022-08-30T13:29:29.341Z,0.93
2022-08-30T13:31:56.952Z,0.65
2022-08-30T13:34:24.072Z,0.77
2022-08-30T13:36:56.980Z,0.70
2022-08-30T13:39:24.989Z,0.60
2022-08-30T13:41:52.356Z,0.55
2022-08-30T13:44:19.331Z,0.60
2022-08-30T13:46:53.774Z,1.02
2022-08-30T13:52:21.279Z,0.50
2022-08-30T13:54:56.854Z,0.68
2022-08-30T14:00:19.047Z,0.88
2022-08-30T14:02:54.273Z,0.70
2022-08-30T14:06:05.158Z,0.60
2022-08-30T14:08:46.271Z,0.47
2022-08-30T14:11:19.361Z,0.60
2022-08-30T14:16:40.211Z,0.70
2022-08-30T14:19:09.443Z,0.60
2022-08-30T14:21:36.646Z,0.70
2022-08-30T14:24:06.383Z,0.70
2022-08-30T14:26:37.014Z,1.05
2022-08-30T14:29:09.237Z,0.35
2022-08-30T14:31:38.019Z,0.47
2022-08-30T14:34:05.555Z,1.10
2022-08-30T14:36:34.984Z,0.50
2022-08-30T14:39:06.380Z,0.70
2022-08-30T14:41:43.496Z,0.60
2022-08-30T14:44:12.344Z,1.40
2022-08-30T14:46:39.279Z,0.60
2022-08-30T14:49:07.447Z,0.73
2022-08-30T14:51:37.176Z,0.63
2022-08-30T14:54:04.683Z,0.60
2022-08-30T14:56:31.698Z,0.40
2022-08-30T14:59:00.691Z,0.65
2022-08-30T15:01:28.491Z,0.60
2022-08-30T15:03:55.921Z,0.68
2022-08-30T15:06:23.053Z,0.32
2022-08-30T15:11:22.977Z,0.43
2022-08-30T15:13:53.018Z,0.40
2022-08-30T15:16:28.949Z,0.35
2022-08-30T15:18:57.408Z,1.42
2022-08-30T15:21:24.778Z,0.60
2022-08-30T15:23:52.929Z,0.52
2022-08-30T15:26:20.550Z,0.70
2022-08-30T15:28:47.803Z,0.70
2022-08-30T15:31:16.182Z,0.60
2022-08-30T15:33:44.250Z,0.57
2022-08-30T15:36:12.168Z,0.50
2022-08-30T15:38:39.724Z,0.93
2022-08-30T15:41:10.397Z,1.38
2022-08-30T15:43:37.713Z,0.73
2022-08-30T15:46:16.731Z,0.73
2022-08-30T15:48:45.533Z,0.68
2022-08-30T15:51:13.613Z,0.60
2022-08-30T15:53:40.986Z,0.68
2022-08-30T15:56:07.924Z,0.57
2022-08-30T15:58:35.250Z,0.22
2022-08-30T16:01:04.914Z,0.55
2022-08-30T16:03:32.979Z,0.40
2022-08-30T16:06:00.332Z,0.40
2022-08-30T16:08:29.734Z,0.75
2022-08-30T16:10:56.608Z,0.60
2022-08-30T16:13:23.529Z,0.52
2022-08-30T16:15:50.559Z,0.98
2022-08-30T16:18:17.594Z,0.52
2022-08-30T16:20:44.947Z,0.50
2022-08-30T16:23:12.386Z,0.45
2022-08-30T16:25:39.939Z,0.77
2022-08-30T16:28:09.329Z,0.73
2022-08-30T16:30:36.870Z,0.30
2022-08-30T16:33:04.119Z,0.60
2022-08-30T16:35:32.970Z,0.70
2022-08-30T16:37:59.921Z,0.70
2022-08-30T16:40:27.621Z,0.35
2022-08-30T16:42:54.541Z,0.50
2022-08-30T16:45:21.458Z,0.50
2022-08-30T16:47:51.002Z,0.38
2022-08-30T16:50:21.486Z,0.85
2022-08-30T16:52:48.378Z,1.00
2022-08-30T16:55:15.784Z,0.52
2022-08-30T16:57:42.677Z,0.70
2022-08-30T17:00:13.068Z,0.63
2022-08-30T17:02:40.732Z,0.40
2022-08-30T17:05:13.551Z,0.50
2022-08-30T17:07:40.431Z,0.65
2022-08-30T17:10:07.590Z,0.50
2022-08-30T17:12:35.898Z,0.77
2022-08-30T17:15:05.542Z,0.68
2022-08-30T17:17:32.928Z,0.88
2022-08-30T17:19:59.889Z,0.63
2022-08-30T17:22:26.843Z,0.40
2022-08-30T17:24:53.803Z,0.50
2022-08-30T17:27:20.778Z,0.80
2022-08-30T17:29:48.137Z,0.85
2022-08-30T17:32:15.121Z,0.47
2022-08-30T17:34:42.117Z,0.57
2022-08-30T17:37:09.375Z,1.42
2022-08-30T17:39:37.132Z,0.57
2022-08-30T17:42:04.537Z,0.70
2022-08-30T17:44:34.136Z,0.75
2022-08-30T17:47:02.016Z,0.55
2022-08-30T17:49:30.231Z,0.57
2022-08-30T17:51:57.992Z,0.70
2022-08-30T17:54:29.582Z,1.52
2022-08-30T17:56:58.275Z,0.90
2022-08-30T17:59:26.180Z,0.82
2022-08-30T18:01:55.009Z,0.77
2022-08-30T18:04:24.860Z,0.65
2022-08-30T18:06:52.393Z,0.47
2022-08-30T18:09:19.467Z,0.73
2022-08-30T18:11:48.407Z,0.70
2022-08-30T18:14:16.085Z,0.57
2022-08-30T18:16:53.662Z,0.52
2022-08-30T18:19:23.396Z,0.50
2022-08-30T18:21:50.443Z,0.55
2022-08-30T18:24:18.301Z,0.75
2022-08-30T18:26:45.234Z,0.93
2022-08-30T18:29:12.282Z,0.73
2022-08-30T18:31:39.545Z,0.90
2022-08-30T18:34:07.083Z,0.68
2022-08-30T18:36:39.433Z,0.50
2022-08-30T18:39:06.914Z,0.40
2022-08-30T18:41:34.212Z,0.68
2022-08-30T18:46:55.858Z,0.70
2022-08-30T18:49:24.761Z,0.45
2022-08-30T18:51:51.644Z,0.80
2022-08-30T18:54:19.323Z,0.70
2022-08-30T18:56:46.504Z,0.77
2022-08-30T18:59:13.592Z,0.68
2022-08-30T19:01:40.839Z,0.73
2022-08-30T19:04:08.085Z,0.57
2022-08-30T19:06:37.649Z,0.77
2022-08-30T19:09:09.120Z,0.63
2022-08-30T19:11:38.198Z,0.60
2022-08-30T19:14:07.001Z,0.50
2022-08-30T19:16:36.130Z,0.60
2022-08-30T19:19:04.207Z,0.55
2022-08-30T19:21:31.063Z,0.45
2022-08-30T19:23:58.618Z,0.47
2022-08-30T19:26:27.623Z,0.68
2022-08-30T19:28:54.574Z,0.60
2022-08-30T19:31:21.507Z,0.50
2022-08-30T19:33:48.460Z,0.73
2022-08-30T19:36:15.497Z,0.80
2022-08-30T19:38:44.535Z,0.60
2022-08-30T19:41:12.850Z,0.45
2022-08-30T19:43:40.111Z,0.50
2022-08-30T19:46:07.994Z,0.77
2022-08-30T19:48:40.223Z,0.50
2022-08-30T19:51:12.306Z,0.40
2022-08-30T19:53:41.558Z,0.70
2022-08-30T19:56:08.553Z,0.70
2022-08-30T19:58:35.396Z,0.40
2022-08-30T20:01:12.148Z,0.90
2022-08-30T20:03:40.317Z,0.73
2022-08-30T20:06:08.923Z,0.52
2022-08-30T20:08:36.364Z,0.73
2022-08-30T20:11:03.986Z,0.90
2022-08-30T20:13:33.694Z,0.80
2022-08-30T20:24:29.190Z,0.73
2022-08-30T20:26:42.343Z,0.85
2022-08-30T20:29:09.259Z,0.45
2022-08-30T20:31:36.689Z,0.22
2022-08-30T20:34:04.577Z,0.30
2022-08-30T20:36:32.500Z,0.43
2022-08-30T20:38:59.401Z,0.30
2022-08-30T20:41:28.966Z,0.50
2022-08-30T20:43:58.212Z,0.63
2022-08-30T20:46:25.240Z,1.83
2022-08-30T20:48:52.842Z,0.30
2022-08-30T20:51:23.049Z,0.40
2022-08-30T20:53:50.686Z,0.35
2022-08-30T20:56:19.955Z,0.20
2022-08-30T20:58:46.887Z,0.20
2022-08-30T21:01:15.923Z,0.20
2022-08-30T21:03:44.934Z,0.30
2022-08-30T21:06:11.863Z,0.28
2022-08-30T21:08:39.792Z,0.43
2022-08-30T21:11:07.075Z,0.10
2022-08-30T21:13:34.086Z,0.30
2022-08-30T21:16:03.259Z,0.30
2022-08-30T21:18:33.104Z,0.40
2022-08-30T21:21:15.273Z,0.30
2022-08-30T21:23:42.809Z,0.30
2022-08-30T21:26:10.855Z,0.30
2022-08-30T21:28:38.834Z,0.20
2022-08-30T21:31:14.657Z,0.20
2022-08-30T21:33:41.947Z,0.20
2022-08-30T21:36:28.233Z,0.80
2022-08-30T21:39:00.455Z,0.20
2022-08-30T21:41:28.733Z,0.22
2022-08-30T21:44:00.652Z,0.20
2022-08-30T21:46:29.111Z,0.80
2022-08-30T21:48:59.146Z,0.20
2022-08-30T21:51:26.121Z,0.20
2022-08-30T21:53:53.156Z,0.20
2022-08-30T21:56:22.314Z,0.20
2022-08-30T21:58:49.792Z,0.20
2022-08-30T22:01:19.867Z,0.63
2022-08-30T22:03:47.413Z,0.30
2022-08-30T22:06:15.562Z,0.20
2022-08-30T22:08:44.635Z,0.30
2022-08-30T22:11:15.478Z,0.22
2022-08-30T22:13:44.242Z,0.13
2022-08-30T22:16:11.953Z,0.30
2022-08-30T22:18:39.182Z,0.20
2022-08-30T22:21:07.812Z,0.20
2022-08-30T22:23:35.566Z,0.30
2022-08-30T22:26:02.594Z,0.25
2022-08-30T22:28:29.443Z,0.20
2022-08-30T22:31:01.067Z,0.20
2022-08-30T22:33:28.517Z,0.55
2022-08-30T22:35:55.732Z,0.10
2022-08-30T22:38:23.298Z,0.22
2022-08-30T22:40:54.202Z,0.32
2022-08-30T22:43:21.064Z,0.20
2022-08-30T22:45:48.158Z,0.30
2022-08-30T22:48:15.052Z,0.20
2022-08-30T22:50:41.927Z,0.13
2022-08-30T22:53:08.908Z,0.20
2022-08-30T22:55:38.676Z,0.28
2022-08-30T22:58:05.526Z,0.10
2022-08-30T23:00:32.580Z,0.20
2022-08-30T23:02:59.499Z,0.10
2022-08-30T23:05:26.416Z,0.20
2022-08-30T23:07:53.473Z,0.22
2022-08-30T23:10:21.910Z,0.20
2022-08-30T23:12:48.792Z,0.45
2022-08-30T23:15:16.407Z,0.40
2022-08-30T23:17:43.328Z,0.13
2022-08-30T23:20:10.966Z,0.20
2022-08-30T23:22:37.990Z,0.38
2022-08-30T23:25:25.406Z,0.20
2022-08-30T23:28:11.739Z,0.20
2022-08-30T23:31:02.856Z,0.22
2022-08-30T23:33:48.002Z,0.20
2022-08-30T23:36:33.578Z,0.10
2022-08-30T23:39:21.155Z,0.30
2022-08-30T23:42:06.645Z,0.20
2022-08-30T23:44:52.175Z,0.13
2022-08-30T23:47:37.521Z,0.30
2022-08-30T23:50:23.133Z,0.82
2022-08-30T23:53:08.653Z,0.25
2022-08-30T23:55:57.430Z,0.30
2022-08-30T23:58:43.111Z,0.20
